sensor_id;sensor_type;location;lat;lon;timestamp;P1;durP1;ratioP1;P2;durP2;ratioP2
21018;SDS011;10667;51.056;3.732;2023-07-13T00:00:28;11.10;;;3.95;;
21018;SDS011;10667;51.056;3.732;2023-07-13T00:02:54;12.27;;;3.90;;
21018;SDS011;10667;51.056;3.732;2023-07-13T00:05:20;11.05;;;3.30;;
21018;SDS011;10667;51.056;3.732;2023-07-13T00:07:47;14.10;;;3.95;;
21018;SDS011;10667;51.056;3.732;2023-07-13T00:10:13;11.90;;;4.05;;
21018;SDS011;10667;51.056;3.732;2023-07-13T00:12:39;11.48;;;3.90;;
21018;SDS011;10667;51.056;3.732;2023-07-13T00:15:06;15.43;;;4.38;;
21018;SDS011;10667;51.056;3.732;2023-07-13T00:17:48;9.88;;;3.45;;
21018;SDS011;10667;51.056;3.732;2023-07-13T00:20:15;13.23;;;3.88;;
21018;SDS011;10667;51.056;3.732;2023-07-13T00:22:41;11.27;;;3.47;;
21018;SDS011;10667;51.056;3.732;2023-07-13T00:25:08;9.85;;;4.00;;
21018;SDS011;10667;51.056;3.732;2023-07-13T00:27:37;14.05;;;3.60;;
21018;SDS011;10667;51.056;3.732;2023-07-13T00:30:03;12.98;;;3.97;;
21018;SDS011;10667;51.056;3.732;2023-07-13T00:32:29;15.85;;;3.65;;
21018;SDS011;10667;51.056;3.732;2023-07-13T00:34:55;9.48;;;3.17;;
21018;SDS011;10667;51.056;3.732;2023-07-13T00:37:23;14.45;;;4.18;;
21018;SDS011;10667;51.056;3.732;2023-07-13T00:39:49;16.55;;;3.70;;
21018;SDS011;10667;51.056;3.732;2023-07-13T00:42:15;16.52;;;3.90;;
21018;SDS011;10667;51.056;3.732;2023-07-13T00:44:40;19.50;;;4.03;;
21018;SDS011;10667;51.056;3.732;2023-07-13T00:47:06;10.80;;;3.35;;
21018;SDS011;10667;51.056;3.732;2023-07-13T00:49:32;11.25;;;3.70;;
21018;SDS011;10667;51.056;3.732;2023-07-13T00:52:04;12.45;;;3.58;;
21018;SDS011;10667;51.056;3.732;2023-07-13T00:54:33;11.07;;;3.75;;
21018;SDS011;10667;51.056;3.732;2023-07-13T00:57:04;12.52;;;3.80;;
21018;SDS011;10667;51.056;3.732;2023-07-13T00:59:35;12.65;;;3.78;;
21018;SDS011;10667;51.056;3.732;2023-07-13T01:02:03;12.25;;;3.05;;
21018;SDS011;10667;51.056;3.732;2023-07-13T01:04:29;19.08;;;4.55;;
21018;SDS011;10667;51.056;3.732;2023-07-13T01:06:55;15.73;;;3.65;;
21018;SDS011;10667;51.056;3.732;2023-07-13T01:09:22;18.05;;;4.93;;
21018;SDS011;10667;51.056;3.732;2023-07-13T01:11:48;12.02;;;3.72;;
21018;SDS011;10667;51.056;3.732;2023-07-13T01:14:13;16.23;;;4.00;;
21018;SDS011;10667;51.056;3.732;2023-07-13T01:16:40;15.00;;;4.22;;
21018;SDS011;10667;51.056;3.732;2023-07-13T01:19:53;14.60;;;4.13;;
21018;SDS011;10667;51.056;3.732;2023-07-13T01:22:05;10.55;;;3.60;;
21018;SDS011;10667;51.056;3.732;2023-07-13T01:24:34;13.02;;;3.42;;
21018;SDS011;10667;51.056;3.732;2023-07-13T01:27:03;14.88;;;3.90;;
21018;SDS011;10667;51.056;3.732;2023-07-13T01:29:31;13.45;;;3.92;;
21018;SDS011;10667;51.056;3.732;2023-07-13T01:31:58;14.25;;;3.63;;
21018;SDS011;10667;51.056;3.732;2023-07-13T01:34:25;17.00;;;3.40;;
21018;SDS011;10667;51.056;3.732;2023-07-13T01:36:51;13.23;;;4.22;;
21018;SDS011;10667;51.056;3.732;2023-07-13T01:39:19;11.50;;;3.80;;
21018;SDS011;10667;51.056;3.732;2023-07-13T01:41:48;15.20;;;3.92;;
21018;SDS011;10667;51.056;3.732;2023-07-13T01:44:14;17.05;;;4.65;;
21018;SDS011;10667;51.056;3.732;2023-07-13T01:46:40;12.68;;;3.85;;
21018;SDS011;10667;51.056;3.732;2023-07-13T01:49:05;15.50;;;3.90;;
21018;SDS011;10667;51.056;3.732;2023-07-13T01:51:31;14.88;;;4.68;;
21018;SDS011;10667;51.056;3.732;2023-07-13T01:53:57;13.30;;;3.63;;
21018;SDS011;10667;51.056;3.732;2023-07-13T01:56:22;14.35;;;4.55;;
21018;SDS011;10667;51.056;3.732;2023-07-13T01:58:48;17.13;;;4.45;;
21018;SDS011;10667;51.056;3.732;2023-07-13T02:01:14;15.20;;;4.47;;
21018;SDS011;10667;51.056;3.732;2023-07-13T02:03:39;19.50;;;5.07;;
21018;SDS011;10667;51.056;3.732;2023-07-13T02:06:05;20.25;;;5.03;;
21018;SDS011;10667;51.056;3.732;2023-07-13T02:08:32;15.75;;;4.30;;
21018;SDS011;10667;51.056;3.732;2023-07-13T02:10:58;11.50;;;4.57;;
21018;SDS011;10667;51.056;3.732;2023-07-13T02:13:24;14.52;;;4.65;;
21018;SDS011;10667;51.056;3.732;2023-07-13T02:15:50;15.35;;;4.70;;
21018;SDS011;10667;51.056;3.732;2023-07-13T02:18:16;15.77;;;4.75;;
21018;SDS011;10667;51.056;3.732;2023-07-13T02:20:43;11.73;;;3.97;;
21018;SDS011;10667;51.056;3.732;2023-07-13T02:23:09;16.25;;;4.45;;
21018;SDS011;10667;51.056;3.732;2023-07-13T02:25:34;11.60;;;4.00;;
21018;SDS011;10667;51.056;3.732;2023-07-13T02:28:00;16.73;;;4.88;;
21018;SDS011;10667;51.056;3.732;2023-07-13T02:30:26;11.68;;;3.90;;
21018;SDS011;10667;51.056;3.732;2023-07-13T02:32:54;17.48;;;4.47;;
21018;SDS011;10667;51.056;3.732;2023-07-13T02:35:20;15.73;;;4.78;;
21018;SDS011;10667;51.056;3.732;2023-07-13T02:37:46;15.10;;;4.47;;
21018;SDS011;10667;51.056;3.732;2023-07-13T02:40:12;12.48;;;4.15;;
21018;SDS011;10667;51.056;3.732;2023-07-13T02:42:38;19.38;;;4.80;;
21018;SDS011;10667;51.056;3.732;2023-07-13T02:45:04;15.23;;;5.15;;
21018;SDS011;10667;51.056;3.732;2023-07-13T02:47:31;14.45;;;3.97;;
21018;SDS011;10667;51.056;3.732;2023-07-13T02:49:57;19.38;;;4.80;;
21018;SDS011;10667;51.056;3.732;2023-07-13T02:52:24;12.90;;;3.88;;
21018;SDS011;10667;51.056;3.732;2023-07-13T02:54:50;12.13;;;4.22;;
21018;SDS011;10667;51.056;3.732;2023-07-13T02:57:15;15.98;;;5.25;;
21018;SDS011;10667;51.056;3.732;2023-07-13T02:59:41;21.25;;;4.75;;
21018;SDS011;10667;51.056;3.732;2023-07-13T03:02:07;16.02;;;4.57;;
21018;SDS011;10667;51.056;3.732;2023-07-13T03:04:34;19.00;;;4.43;;
21018;SDS011;10667;51.056;3.732;2023-07-13T03:07:00;14.88;;;4.60;;
21018;SDS011;10667;51.056;3.732;2023-07-13T03:09:26;15.13;;;3.92;;
21018;SDS011;10667;51.056;3.732;2023-07-13T03:11:53;18.13;;;5.50;;
21018;SDS011;10667;51.056;3.732;2023-07-13T03:14:19;21.95;;;5.60;;
21018;SDS011;10667;51.056;3.732;2023-07-13T03:16:46;16.35;;;4.68;;
21018;SDS011;10667;51.056;3.732;2023-07-13T03:19:12;16.88;;;4.40;;
21018;SDS011;10667;51.056;3.732;2023-07-13T03:21:37;18.30;;;4.32;;
21018;SDS011;10667;51.056;3.732;2023-07-13T03:24:03;13.77;;;4.45;;
21018;SDS011;10667;51.056;3.732;2023-07-13T03:26:29;16.55;;;4.45;;
21018;SDS011;10667;51.056;3.732;2023-07-13T03:28:54;17.55;;;4.93;;
21018;SDS011;10667;51.056;3.732;2023-07-13T03:31:22;17.52;;;4.55;;
21018;SDS011;10667;51.056;3.732;2023-07-13T03:33:49;23.02;;;5.28;;
21018;SDS011;10667;51.056;3.732;2023-07-13T03:36:17;19.27;;;4.93;;
21018;SDS011;10667;51.056;3.732;2023-07-13T03:38:48;18.83;;;4.63;;
21018;SDS011;10667;51.056;3.732;2023-07-13T03:41:15;17.52;;;4.70;;
21018;SDS011;10667;51.056;3.732;2023-07-13T03:43:41;13.57;;;4.20;;
21018;SDS011;10667;51.056;3.732;2023-07-13T03:46:07;16.55;;;4.88;;
21018;SDS011;10667;51.056;3.732;2023-07-13T03:48:33;14.95;;;3.90;;
21018;SDS011;10667;51.056;3.732;2023-07-13T03:50:59;18.17;;;4.88;;
21018;SDS011;10667;51.056;3.732;2023-07-13T03:53:25;15.65;;;4.45;;
21018;SDS011;10667;51.056;3.732;2023-07-13T03:55:51;22.30;;;5.07;;
21018;SDS011;10667;51.056;3.732;2023-07-13T03:58:24;12.77;;;4.10;;
21018;SDS011;10667;51.056;3.732;2023-07-13T04:00:51;11.10;;;4.38;;
21018;SDS011;10667;51.056;3.732;2023-07-13T04:03:17;13.20;;;4.53;;
21018;SDS011;10667;51.056;3.732;2023-07-13T04:05:43;17.05;;;4.38;;
21018;SDS011;10667;51.056;3.732;2023-07-13T04:08:08;16.30;;;4.20;;
21018;SDS011;10667;51.056;3.732;2023-07-13T04:10:34;16.45;;;5.00;;
21018;SDS011;10667;51.056;3.732;2023-07-13T04:12:59;15.77;;;5.22;;
21018;SDS011;10667;51.056;3.732;2023-07-13T04:15:27;17.42;;;4.97;;
21018;SDS011;10667;51.056;3.732;2023-07-13T04:17:55;14.38;;;4.28;;
21018;SDS011;10667;51.056;3.732;2023-07-13T04:20:20;19.88;;;4.88;;
21018;SDS011;10667;51.056;3.732;2023-07-13T04:22:46;12.60;;;4.40;;
21018;SDS011;10667;51.056;3.732;2023-07-13T04:25:12;21.35;;;4.25;;
21018;SDS011;10667;51.056;3.732;2023-07-13T04:27:38;16.10;;;4.88;;
21018;SDS011;10667;51.056;3.732;2023-07-13T04:30:05;18.65;;;5.20;;
21018;SDS011;10667;51.056;3.732;2023-07-13T04:32:31;13.90;;;4.22;;
21018;SDS011;10667;51.056;3.732;2023-07-13T04:34:57;19.55;;;5.05;;
21018;SDS011;10667;51.056;3.732;2023-07-13T04:37:24;16.88;;;5.50;;
21018;SDS011;10667;51.056;3.732;2023-07-13T04:39:50;15.07;;;4.68;;
21018;SDS011;10667;51.056;3.732;2023-07-13T04:42:16;11.80;;;4.20;;
21018;SDS011;10667;51.056;3.732;2023-07-13T04:44:46;18.73;;;4.30;;
21018;SDS011;10667;51.056;3.732;2023-07-13T04:47:13;15.93;;;4.88;;
21018;SDS011;10667;51.056;3.732;2023-07-13T04:49:39;20.42;;;4.47;;
21018;SDS011;10667;51.056;3.732;2023-07-13T04:52:05;18.55;;;4.75;;
21018;SDS011;10667;51.056;3.732;2023-07-13T04:54:32;13.07;;;4.13;;
21018;SDS011;10667;51.056;3.732;2023-07-13T04:56:58;17.40;;;4.60;;
21018;SDS011;10667;51.056;3.732;2023-07-13T04:59:24;16.30;;;4.55;;
21018;SDS011;10667;51.056;3.732;2023-07-13T05:01:50;17.08;;;4.13;;
21018;SDS011;10667;51.056;3.732;2023-07-13T05:04:16;15.73;;;4.60;;
21018;SDS011;10667;51.056;3.732;2023-07-13T05:06:42;22.58;;;5.30;;
21018;SDS011;10667;51.056;3.732;2023-07-13T05:09:07;21.33;;;5.35;;
21018;SDS011;10667;51.056;3.732;2023-07-13T05:11:33;16.30;;;4.35;;
21018;SDS011;10667;51.056;3.732;2023-07-13T05:13:59;22.38;;;4.75;;
21018;SDS011;10667;51.056;3.732;2023-07-13T05:16:26;16.92;;;4.22;;
21018;SDS011;10667;51.056;3.732;2023-07-13T05:18:52;18.25;;;4.75;;
21018;SDS011;10667;51.056;3.732;2023-07-13T05:21:18;17.10;;;5.25;;
21018;SDS011;10667;51.056;3.732;2023-07-13T05:23:44;15.63;;;4.50;;
21018;SDS011;10667;51.056;3.732;2023-07-13T05:26:10;17.35;;;4.93;;
21018;SDS011;10667;51.056;3.732;2023-07-13T05:28:36;13.50;;;4.20;;
21018;SDS011;10667;51.056;3.732;2023-07-13T05:31:03;24.08;;;5.22;;
21018;SDS011;10667;51.056;3.732;2023-07-13T05:33:29;14.18;;;4.25;;
21018;SDS011;10667;51.056;3.732;2023-07-13T05:35:55;15.15;;;4.90;;
21018;SDS011;10667;51.056;3.732;2023-07-13T05:38:21;15.90;;;4.95;;
21018;SDS011;10667;51.056;3.732;2023-07-13T05:40:47;14.80;;;4.45;;
21018;SDS011;10667;51.056;3.732;2023-07-13T05:43:13;15.27;;;4.38;;
21018;SDS011;10667;51.056;3.732;2023-07-13T05:45:39;17.92;;;4.25;;
21018;SDS011;10667;51.056;3.732;2023-07-13T05:48:05;13.93;;;4.18;;
21018;SDS011;10667;51.056;3.732;2023-07-13T05:50:31;17.63;;;4.68;;
21018;SDS011;10667;51.056;3.732;2023-07-13T05:52:57;17.30;;;4.35;;
21018;SDS011;10667;51.056;3.732;2023-07-13T05:55:23;29.13;;;5.10;;
21018;SDS011;10667;51.056;3.732;2023-07-13T05:57:48;19.08;;;5.35;;
21018;SDS011;10667;51.056;3.732;2023-07-13T06:00:14;19.85;;;4.70;;
21018;SDS011;10667;51.056;3.732;2023-07-13T06:02:40;12.52;;;4.57;;
21018;SDS011;10667;51.056;3.732;2023-07-13T06:05:06;15.13;;;4.55;;
21018;SDS011;10667;51.056;3.732;2023-07-13T06:07:32;16.88;;;4.65;;
21018;SDS011;10667;51.056;3.732;2023-07-13T06:09:58;12.32;;;4.55;;
21018;SDS011;10667;51.056;3.732;2023-07-13T06:12:24;14.88;;;4.43;;
21018;SDS011;10667;51.056;3.732;2023-07-13T06:14:50;14.75;;;4.10;;
21018;SDS011;10667;51.056;3.732;2023-07-13T06:17:16;12.90;;;4.38;;
21018;SDS011;10667;51.056;3.732;2023-07-13T06:19:41;16.40;;;4.63;;
21018;SDS011;10667;51.056;3.732;2023-07-13T06:22:07;14.77;;;4.63;;
21018;SDS011;10667;51.056;3.732;2023-07-13T06:24:33;11.10;;;4.15;;
21018;SDS011;10667;51.056;3.732;2023-07-13T06:26:58;18.65;;;5.20;;
21018;SDS011;10667;51.056;3.732;2023-07-13T06:29:24;16.38;;;4.38;;
21018;SDS011;10667;51.056;3.732;2023-07-13T06:31:50;18.42;;;4.75;;
21018;SDS011;10667;51.056;3.732;2023-07-13T06:34:15;19.27;;;5.10;;
21018;SDS011;10667;51.056;3.732;2023-07-13T06:36:41;15.32;;;4.85;;
21018;SDS011;10667;51.056;3.732;2023-07-13T06:39:07;18.88;;;4.50;;
21018;SDS011;10667;51.056;3.732;2023-07-13T06:41:33;12.32;;;4.40;;
21018;SDS011;10667;51.056;3.732;2023-07-13T06:43:59;15.90;;;5.05;;
21018;SDS011;10667;51.056;3.732;2023-07-13T06:46:24;17.20;;;5.07;;
21018;SDS011;10667;51.056;3.732;2023-07-13T06:48:50;23.30;;;4.65;;
21018;SDS011;10667;51.056;3.732;2023-07-13T06:51:16;17.08;;;5.10;;
21018;SDS011;10667;51.056;3.732;2023-07-13T06:53:42;18.60;;;5.13;;
21018;SDS011;10667;51.056;3.732;2023-07-13T06:56:09;16.48;;;4.38;;
21018;SDS011;10667;51.056;3.732;2023-07-13T06:58:35;12.95;;;4.00;;
21018;SDS011;10667;51.056;3.732;2023-07-13T07:01:02;23.80;;;5.75;;
21018;SDS011;10667;51.056;3.732;2023-07-13T07:03:28;18.85;;;4.60;;
21018;SDS011;10667;51.056;3.732;2023-07-13T07:05:54;16.50;;;4.93;;
21018;SDS011;10667;51.056;3.732;2023-07-13T07:08:25;19.70;;;4.95;;
21018;SDS011;10667;51.056;3.732;2023-07-13T07:10:51;11.07;;;4.07;;
21018;SDS011;10667;51.056;3.732;2023-07-13T07:13:19;18.00;;;4.82;;
21018;SDS011;10667;51.056;3.732;2023-07-13T07:15:44;15.93;;;4.88;;
21018;SDS011;10667;51.056;3.732;2023-07-13T07:18:10;16.60;;;4.05;;
21018;SDS011;10667;51.056;3.732;2023-07-13T07:20:36;18.98;;;5.00;;
21018;SDS011;10667;51.056;3.732;2023-07-13T07:23:02;12.82;;;4.10;;
21018;SDS011;10667;51.056;3.732;2023-07-13T07:25:27;18.40;;;5.05;;
21018;SDS011;10667;51.056;3.732;2023-07-13T07:27:56;15.20;;;4.72;;
21018;SDS011;10667;51.056;3.732;2023-07-13T07:30:23;18.48;;;4.15;;
21018;SDS011;10667;51.056;3.732;2023-07-13T07:32:49;14.20;;;4.40;;
21018;SDS011;10667;51.056;3.732;2023-07-13T07:35:15;9.95;;;3.78;;
21018;SDS011;10667;51.056;3.732;2023-07-13T07:37:40;17.88;;;4.63;;
21018;SDS011;10667;51.056;3.732;2023-07-13T07:40:07;11.00;;;4.03;;
21018;SDS011;10667;51.056;3.732;2023-07-13T07:42:33;12.13;;;3.78;;
21018;SDS011;10667;51.056;3.732;2023-07-13T07:44:59;13.80;;;4.10;;
21018;SDS011;10667;51.056;3.732;2023-07-13T07:47:25;11.23;;;3.50;;
21018;SDS011;10667;51.056;3.732;2023-07-13T07:49:51;12.38;;;3.25;;
21018;SDS011;10667;51.056;3.732;2023-07-13T07:52:17;14.13;;;3.85;;
21018;SDS011;10667;51.056;3.732;2023-07-13T07:54:43;12.73;;;3.67;;
21018;SDS011;10667;51.056;3.732;2023-07-13T07:57:09;17.90;;;3.78;;
21018;SDS011;10667;51.056;3.732;2023-07-13T07:59:35;9.75;;;3.40;;
21018;SDS011;10667;51.056;3.732;2023-07-13T08:02:02;15.85;;;3.80;;
21018;SDS011;10667;51.056;3.732;2023-07-13T08:04:28;9.18;;;3.25;;
21018;SDS011;10667;51.056;3.732;2023-07-13T08:06:54;14.32;;;3.65;;
21018;SDS011;10667;51.056;3.732;2023-07-13T08:09:21;7.88;;;3.58;;
21018;SDS011;10667;51.056;3.732;2023-07-13T08:11:47;9.75;;;3.13;;
21018;SDS011;10667;51.056;3.732;2023-07-13T08:14:13;14.48;;;3.83;;
21018;SDS011;10667;51.056;3.732;2023-07-13T08:16:39;9.63;;;3.17;;
21018;SDS011;10667;51.056;3.732;2023-07-13T08:19:05;11.40;;;3.78;;
21018;SDS011;10667;51.056;3.732;2023-07-13T08:21:31;10.20;;;3.40;;
21018;SDS011;10667;51.056;3.732;2023-07-13T08:23:57;10.25;;;3.63;;
21018;SDS011;10667;51.056;3.732;2023-07-13T08:26:22;9.40;;;3.05;;
21018;SDS011;10667;51.056;3.732;2023-07-13T08:28:48;13.73;;;3.22;;
21018;SDS011;10667;51.056;3.732;2023-07-13T08:31:14;8.38;;;3.17;;
21018;SDS011;10667;51.056;3.732;2023-07-13T08:33:40;10.85;;;3.10;;
21018;SDS011;10667;51.056;3.732;2023-07-13T08:36:06;14.80;;;3.25;;
21018;SDS011;10667;51.056;3.732;2023-07-13T08:38:32;11.85;;;3.33;;
21018;SDS011;10667;51.056;3.732;2023-07-13T08:40:58;13.80;;;3.50;;
21018;SDS011;10667;51.056;3.732;2023-07-13T08:43:30;10.02;;;2.83;;
21018;SDS011;10667;51.056;3.732;2023-07-13T08:46:02;9.02;;;2.75;;
21018;SDS011;10667;51.056;3.732;2023-07-13T08:48:38;13.30;;;3.53;;
21018;SDS011;10667;51.056;3.732;2023-07-13T08:53:57;11.15;;;3.75;;
21018;SDS011;10667;51.056;3.732;2023-07-13T08:56:26;7.97;;;2.63;;
21018;SDS011;10667;51.056;3.732;2023-07-13T08:59:02;10.40;;;2.92;;
21018;SDS011;10667;51.056;3.732;2023-07-13T09:04:43;5.95;;;2.47;;
21018;SDS011;10667;51.056;3.732;2023-07-13T09:10:11;9.45;;;3.08;;
21018;SDS011;10667;51.056;3.732;2023-07-13T09:15:39;4.93;;;2.35;;
21018;SDS011;10667;51.056;3.732;2023-07-13T09:21:00;6.97;;;2.42;;
21018;SDS011;10667;51.056;3.732;2023-07-13T09:23:30;7.55;;;2.80;;
21018;SDS011;10667;51.056;3.732;2023-07-13T09:28:33;7.18;;;2.78;;
21018;SDS011;10667;51.056;3.732;2023-07-13T09:31:06;8.82;;;3.10;;
21018;SDS011;10667;51.056;3.732;2023-07-13T09:33:37;9.45;;;2.83;;
21018;SDS011;10667;51.056;3.732;2023-07-13T09:36:25;8.18;;;2.97;;
21018;SDS011;10667;51.056;3.732;2023-07-13T09:39:14;12.63;;;3.17;;
21018;SDS011;10667;51.056;3.732;2023-07-13T09:41:58;6.70;;;2.70;;
21018;SDS011;10667;51.056;3.732;2023-07-13T09:47:02;9.57;;;2.47;;
21018;SDS011;10667;51.056;3.732;2023-07-13T09:49:35;7.60;;;2.75;;
21018;SDS011;10667;51.056;3.732;2023-07-13T09:52:03;7.68;;;2.83;;
21018;SDS011;10667;51.056;3.732;2023-07-13T09:54:35;8.20;;;3.00;;
21018;SDS011;10667;51.056;3.732;2023-07-13T09:57:02;9.77;;;2.83;;
21018;SDS011;10667;51.056;3.732;2023-07-13T09:59:39;8.82;;;3.15;;
21018;SDS011;10667;51.056;3.732;2023-07-13T10:02:41;6.20;;;2.13;;
21018;SDS011;10667;51.056;3.732;2023-07-13T10:05:10;11.10;;;2.97;;
21018;SDS011;10667;51.056;3.732;2023-07-13T10:07:39;7.55;;;2.47;;
21018;SDS011;10667;51.056;3.732;2023-07-13T10:10:16;10.38;;;2.33;;
21018;SDS011;10667;51.056;3.732;2023-07-13T10:12:44;8.50;;;2.20;;
21018;SDS011;10667;51.056;3.732;2023-07-13T10:15:15;7.55;;;2.50;;
21018;SDS011;10667;51.056;3.732;2023-07-13T10:17:43;7.55;;;2.80;;
21018;SDS011;10667;51.056;3.732;2023-07-13T10:20:10;9.38;;;2.65;;
21018;SDS011;10667;51.056;3.732;2023-07-13T10:25:27;8.10;;;2.80;;
21018;SDS011;10667;51.056;3.732;2023-07-13T10:28:02;6.65;;;2.22;;
21018;SDS011;10667;51.056;3.732;2023-07-13T10:30:39;7.00;;;2.78;;
21018;SDS011;10667;51.056;3.732;2023-07-13T10:33:12;9.32;;;3.03;;
21018;SDS011;10667;51.056;3.732;2023-07-13T10:35:38;10.55;;;2.53;;
21018;SDS011;10667;51.056;3.732;2023-07-13T10:38:10;5.40;;;2.03;;
21018;SDS011;10667;51.056;3.732;2023-07-13T10:40:39;6.22;;;2.28;;
21018;SDS011;10667;51.056;3.732;2023-07-13T10:43:15;7.53;;;2.33;;
21018;SDS011;10667;51.056;3.732;2023-07-13T10:45:46;5.03;;;2.03;;
21018;SDS011;10667;51.056;3.732;2023-07-13T10:48:15;8.98;;;2.83;;
21018;SDS011;10667;51.056;3.732;2023-07-13T10:50:42;9.55;;;3.15;;
21018;SDS011;10667;51.056;3.732;2023-07-13T10:58:19;9.50;;;3.90;;
21018;SDS011;10667;51.056;3.732;2023-07-13T11:03:38;7.63;;;3.40;;
21018;SDS011;10667;51.056;3.732;2023-07-13T11:11:31;7.28;;;3.47;;
21018;SDS011;10667;51.056;3.732;2023-07-13T11:14:02;10.95;;;4.20;;
21018;SDS011;10667;51.056;3.732;2023-07-13T11:21:32;6.15;;;4.00;;
21018;SDS011;10667;51.056;3.732;2023-07-13T11:24:02;10.43;;;4.15;;
21018;SDS011;10667;51.056;3.732;2023-07-13T11:26:42;7.00;;;4.00;;
21018;SDS011;10667;51.056;3.732;2023-07-13T11:31:58;8.70;;;4.10;;
21018;SDS011;10667;51.056;3.732;2023-07-13T11:34:36;8.40;;;3.92;;
21018;SDS011;10667;51.056;3.732;2023-07-13T11:37:07;8.90;;;3.65;;
21018;SDS011;10667;51.056;3.732;2023-07-13T11:39:37;10.38;;;3.33;;
21018;SDS011;10667;51.056;3.732;2023-07-13T11:42:12;7.88;;;4.32;;
21018;SDS011;10667;51.056;3.732;2023-07-13T11:44:49;5.88;;;3.50;;
21018;SDS011;10667;51.056;3.732;2023-07-13T11:47:20;6.35;;;3.60;;
21018;SDS011;10667;51.056;3.732;2023-07-13T11:49:51;10.02;;;3.65;;
21018;SDS011;10667;51.056;3.732;2023-07-13T11:52:33;9.18;;;3.58;;
21018;SDS011;10667;51.056;3.732;2023-07-13T11:55:18;10.40;;;3.80;;
21018;SDS011;10667;51.056;3.732;2023-07-13T11:57:47;9.52;;;3.63;;
21018;SDS011;10667;51.056;3.732;2023-07-13T12:00:31;8.23;;;3.05;;
21018;SDS011;10667;51.056;3.732;2023-07-13T12:02:59;10.27;;;3.75;;
21018;SDS011;10667;51.056;3.732;2023-07-13T12:05:27;7.32;;;3.10;;
21018;SDS011;10667;51.056;3.732;2023-07-13T12:07:54;5.70;;;3.08;;
21018;SDS011;10667;51.056;3.732;2023-07-13T12:12:55;7.03;;;3.55;;
21018;SDS011;10667;51.056;3.732;2023-07-13T12:15:39;6.68;;;3.15;;
21018;SDS011;10667;51.056;3.732;2023-07-13T12:18:17;8.60;;;4.03;;
21018;SDS011;10667;51.056;3.732;2023-07-13T12:20:45;6.85;;;3.30;;
21018;SDS011;10667;51.056;3.732;2023-07-13T12:23:28;7.43;;;2.70;;
21018;SDS011;10667;51.056;3.732;2023-07-13T12:25:58;5.43;;;2.75;;
21018;SDS011;10667;51.056;3.732;2023-07-13T12:30:57;4.53;;;2.45;;
21018;SDS011;10667;51.056;3.732;2023-07-13T12:33:26;31.85;;;5.82;;
21018;SDS011;10667;51.056;3.732;2023-07-13T12:35:57;10.32;;;2.80;;
21018;SDS011;10667;51.056;3.732;2023-07-13T12:38:29;5.90;;;2.70;;
21018;SDS011;10667;51.056;3.732;2023-07-13T12:40:56;6.05;;;2.55;;
21018;SDS011;10667;51.056;3.732;2023-07-13T12:43:22;6.60;;;2.53;;
21018;SDS011;10667;51.056;3.732;2023-07-13T12:48:26;6.20;;;3.00;;
21018;SDS011;10667;51.056;3.732;2023-07-13T12:50:51;4.47;;;2.65;;
21018;SDS011;10667;51.056;3.732;2023-07-13T12:53:20;8.40;;;3.63;;
21018;SDS011;10667;51.056;3.732;2023-07-13T12:55:54;8.48;;;3.17;;
21018;SDS011;10667;51.056;3.732;2023-07-13T13:01:01;8.50;;;3.72;;
21018;SDS011;10667;51.056;3.732;2023-07-13T13:03:33;7.03;;;3.08;;
21018;SDS011;10667;51.056;3.732;2023-07-13T13:08:30;5.15;;;2.20;;
21018;SDS011;10667;51.056;3.732;2023-07-13T13:10:57;5.57;;;2.63;;
21018;SDS011;10667;51.056;3.732;2023-07-13T13:13:23;7.22;;;2.78;;
21018;SDS011;10667;51.056;3.732;2023-07-13T13:15:49;4.40;;;2.63;;
21018;SDS011;10667;51.056;3.732;2023-07-13T13:18:19;5.70;;;2.30;;
21018;SDS011;10667;51.056;3.732;2023-07-13T13:20:47;5.00;;;2.03;;
21018;SDS011;10667;51.056;3.732;2023-07-13T13:23:17;4.07;;;1.98;;
21018;SDS011;10667;51.056;3.732;2023-07-13T13:25:47;4.75;;;1.95;;
21018;SDS011;10667;51.056;3.732;2023-07-13T13:28:18;4.72;;;1.95;;
21018;SDS011;10667;51.056;3.732;2023-07-13T13:30:47;4.05;;;2.10;;
21018;SDS011;10667;51.056;3.732;2023-07-13T13:33:15;4.85;;;1.85;;
21018;SDS011;10667;51.056;3.732;2023-07-13T13:35:42;3.47;;;1.73;;
21018;SDS011;10667;51.056;3.732;2023-07-13T13:38:15;4.85;;;2.28;;
21018;SDS011;10667;51.056;3.732;2023-07-13T13:40:44;4.57;;;1.88;;
21018;SDS011;10667;51.056;3.732;2023-07-13T13:43:26;3.28;;;1.65;;
21018;SDS011;10667;51.056;3.732;2023-07-13T13:45:52;3.47;;;1.67;;
21018;SDS011;10667;51.056;3.732;2023-07-13T13:48:21;4.28;;;1.50;;
21018;SDS011;10667;51.056;3.732;2023-07-13T13:50:56;3.42;;;1.60;;
21018;SDS011;10667;51.056;3.732;2023-07-13T13:53:23;4.38;;;1.83;;
21018;SDS011;10667;51.056;3.732;2023-07-13T13:55:49;4.07;;;1.70;;
21018;SDS011;10667;51.056;3.732;2023-07-13T13:58:15;3.70;;;1.70;;
21018;SDS011;10667;51.056;3.732;2023-07-13T14:00:41;5.00;;;1.80;;
21018;SDS011;10667;51.056;3.732;2023-07-13T14:03:19;3.10;;;1.60;;
21018;SDS011;10667;51.056;3.732;2023-07-13T14:05:47;3.20;;;1.63;;
21018;SDS011;10667;51.056;3.732;2023-07-13T14:08:22;3.90;;;1.60;;
21018;SDS011;10667;51.056;3.732;2023-07-13T14:10:52;4.25;;;1.88;;
21018;SDS011;10667;51.056;3.732;2023-07-13T14:13:21;2.58;;;1.20;;
21018;SDS011;10667;51.056;3.732;2023-07-13T14:15:51;4.22;;;1.75;;
21018;SDS011;10667;51.056;3.732;2023-07-13T14:18:18;2.83;;;1.60;;
21018;SDS011;10667;51.056;3.732;2023-07-13T14:20:44;3.20;;;1.48;;
21018;SDS011;10667;51.056;3.732;2023-07-13T14:23:11;2.00;;;1.40;;
21018;SDS011;10667;51.056;3.732;2023-07-13T14:25:38;3.28;;;1.45;;
21018;SDS011;10667;51.056;3.732;2023-07-13T14:28:10;5.45;;;1.70;;
21018;SDS011;10667;51.056;3.732;2023-07-13T14:30:43;2.10;;;1.40;;
21018;SDS011;10667;51.056;3.732;2023-07-13T14:33:09;3.42;;;1.83;;
21018;SDS011;10667;51.056;3.732;2023-07-13T14:35:36;4.25;;;1.88;;
21018;SDS011;10667;51.056;3.732;2023-07-13T14:38:02;4.40;;;1.70;;
21018;SDS011;10667;51.056;3.732;2023-07-13T14:40:29;5.60;;;1.90;;
21018;SDS011;10667;51.056;3.732;2023-07-13T14:42:56;2.08;;;1.40;;
21018;SDS011;10667;51.056;3.732;2023-07-13T14:45:22;3.13;;;1.60;;
21018;SDS011;10667;51.056;3.732;2023-07-13T14:47:50;5.28;;;1.40;;
21018;SDS011;10667;51.056;3.732;2023-07-13T14:50:17;2.63;;;1.30;;
21018;SDS011;10667;51.056;3.732;2023-07-13T14:52:45;4.03;;;1.70;;
21018;SDS011;10667;51.056;3.732;2023-07-13T14:55:13;4.43;;;1.30;;
21018;SDS011;10667;51.056;3.732;2023-07-13T14:57:40;3.10;;;1.23;;
21018;SDS011;10667;51.056;3.732;2023-07-13T15:00:12;4.55;;;1.88;;
21018;SDS011;10667;51.056;3.732;2023-07-13T15:02:40;3.13;;;1.33;;
21018;SDS011;10667;51.056;3.732;2023-07-13T15:05:17;3.80;;;1.40;;
21018;SDS011;10667;51.056;3.732;2023-07-13T15:07:45;3.47;;;1.73;;
21018;SDS011;10667;51.056;3.732;2023-07-13T15:10:12;4.78;;;1.80;;
21018;SDS011;10667;51.056;3.732;2023-07-13T15:12:43;3.17;;;1.73;;
21018;SDS011;10667;51.056;3.732;2023-07-13T15:15:08;2.30;;;1.13;;
21018;SDS011;10667;51.056;3.732;2023-07-13T15:17:38;2.90;;;1.35;;
21018;SDS011;10667;51.056;3.732;2023-07-13T15:20:06;2.05;;;1.33;;
21018;SDS011;10667;51.056;3.732;2023-07-13T15:22:51;4.22;;;1.27;;
21018;SDS011;10667;51.056;3.732;2023-07-13T15:25:18;4.95;;;1.77;;
21018;SDS011;10667;51.056;3.732;2023-07-13T15:27:55;4.78;;;1.55;;
21018;SDS011;10667;51.056;3.732;2023-07-13T15:30:22;3.45;;;1.60;;
21018;SDS011;10667;51.056;3.732;2023-07-13T15:32:51;3.30;;;1.90;;
21018;SDS011;10667;51.056;3.732;2023-07-13T15:35:20;3.15;;;1.65;;
21018;SDS011;10667;51.056;3.732;2023-07-13T15:37:48;3.65;;;1.20;;
21018;SDS011;10667;51.056;3.732;2023-07-13T15:40:15;1.77;;;1.30;;
21018;SDS011;10667;51.056;3.732;2023-07-13T15:42:41;3.40;;;1.50;;